Time;durP1;ratioP1;P1;durP2;ratioP2;P2;SDS_P1;SDS_P2;PMS_P1;PMS_P2;Temp;Humidity;BMP_temperature;BMP_pressure;BME280_temperature;BME280_humidity;BME280_pressure;Samples;Min_cycle;Max_cycle;Signal;HPM_P1;HPM_P2
2022/04/07 00:00:09;;;;;;;4.53;3.97;;;;;6.30;95303.00;;;;5089112;28;20223;-71
2022/04/07 00:02:38;;;;;;;4.70;4.20;;;;;6.10;95299.00;;;;5098121;28;20210;-71
2022/04/07 00:05:08;;;;;;;5.97;4.50;;;;;5.90;95297.00;;;;5113397;28;20194;-71
2022/04/07 00:07:37;;;;;;;6.27;4.23;;;;;5.90;95307.00;;;;5106406;28;20692;-71
2022/04/07 00:10:07;;;;;;;4.80;4.40;;;;;6.00;95313.00;;;;5106400;28;20228;-71
2022/04/07 00:12:37;;;;;;;6.13;4.93;;;;;6.20;95308.00;;;;5099647;28;20233;-71
2022/04/07 00:15:06;;;;;;;4.83;4.33;;;;;6.20;95305.00;;;;5113317;28;20199;-71
2022/04/07 00:17:35;;;;;;;5.00;4.50;;;;;6.20;95304.00;;;;5112684;28;20204;-71
2022/04/07 00:20:05;;;;;;;5.73;5.07;;;;;6.30;95294.00;;;;5096816;28;20218;-71
2022/04/07 00:22:34;;;;;;;5.03;4.53;;;;;6.40;95305.00;;;;5091930;28;20199;-71
2022/04/07 00:25:03;;;;;;;5.13;4.67;;;;;6.00;95300.00;;;;5092710;28;20199;-71
2022/04/07 00:27:34;;;;;;;4.70;3.47;;;;;5.20;95297.00;;;;5092138;28;20198;-71
2022/04/07 00:30:03;;;;;;;6.20;4.47;;;;;5.00;95302.00;;;;5096954;28;20234;-71
2022/04/07 00:32:32;;;;;;;4.97;4.20;;;;;5.10;95305.00;;;;5103374;27;20267;-71
2022/04/07 00:35:01;;;;;;;6.37;5.07;;;;;5.40;95315.00;;;;5096479;28;20194;-71
2022/04/07 00:37:30;;;;;;;5.23;4.73;;;;;5.60;95313.00;;;;5112537;28;20519;-71
2022/04/07 00:39:59;;;;;;;5.43;4.93;;;;;5.70;95314.00;;;;5112445;28;20471;-71
2022/04/07 00:42:28;;;;;;;5.20;4.70;;;;;5.90;95309.00;;;;5112730;28;20191;-71
2022/04/07 00:44:58;;;;;;;6.63;4.20;;;;;6.00;95304.00;;;;5114421;27;20194;-71
2022/04/07 00:47:27;;;;;;;6.33;5.20;;;;;6.10;95318.00;;;;5117520;27;20214;-71
2022/04/07 00:49:56;;;;;;;5.13;4.73;;;;;6.10;95309.00;;;;5092943;28;20222;-72
2022/04/07 00:52:25;;;;;;;6.00;5.40;;;;;6.10;95316.00;;;;5092355;28;20227;-71
2022/04/07 00:54:54;;;;;;;5.07;4.60;;;;;6.10;95317.00;;;;5091321;28;20199;-71
2022/04/07 00:57:23;;;;;;;4.47;4.07;;;;;5.90;95311.00;;;;5091756;28;20199;-71
2022/04/07 00:59:52;;;;;;;5.73;4.37;;;;;5.70;95313.00;;;;5091584;28;20219;-71
2022/04/07 01:02:23;;;;;;;4.93;4.43;;;;;5.60;95309.00;;;;5092134;28;20743;-71
2022/04/07 01:04:52;;;;;;;5.50;4.43;;;;;5.60;95304.00;;;;5092194;28;20195;-71
2022/04/07 01:07:21;;;;;;;5.10;4.17;;;;;5.50;95301.00;;;;5091330;28;20191;-71
2022/04/07 01:09:50;;;;;;;5.23;4.73;;;;;5.80;95298.00;;;;5091159;28;20589;-71
2022/04/07 01:12:19;;;;;;;5.67;4.70;;;;;5.50;95297.00;;;;5092602;28;20249;-71
2022/04/07 01:14:54;;;;;;;5.23;4.60;;;;;5.80;95283.00;;;;5112627;28;20638;-71
2022/04/07 01:17:25;;;;;;;5.73;4.70;;;;;5.60;95278.00;;;;5111494;28;20194;-71
2022/04/07 01:19:54;;;;;;;5.33;4.80;;;;;5.10;95275.00;;;;5096939;28;20453;-71
2022/04/07 01:22:23;;;;;;;6.73;5.00;;;;;5.00;95262.00;;;;5090823;28;20219;-71
2022/04/07 01:24:54;;;;;;;8.13;5.07;;;;;5.20;95273.00;;;;5091601;28;20210;-71
2022/04/07 01:27:24;;;;;;;4.50;4.10;;;;;5.40;95272.00;;;;5091159;28;20206;-72
2022/04/07 01:29:53;;;;;;;5.50;4.80;;;;;5.70;95256.00;;;;5094608;28;20218;-71
2022/04/07 01:32:27;;;;;;;6.93;5.03;;;;;6.00;95259.00;;;;5102291;28;20628;-71
2022/04/07 01:34:56;;;;;;;7.10;3.90;;;;;5.90;95250.00;;;;5091149;28;20218;-71
2022/04/07 01:37:25;;;;;;;9.60;5.17;;;;;5.50;95254.00;;;;5090829;28;20199;-71
2022/04/07 01:39:55;;;;;;;6.17;4.93;;;;;5.60;95246.00;;;;5109953;28;20894;-71
2022/04/07 01:42:24;;;;;;;5.57;5.07;;;;;5.70;95235.00;;;;5111561;28;20199;-72
2022/04/07 01:44:55;;;;;;;5.17;4.67;;;;;5.80;95240.00;;;;5109332;27;20201;-72
2022/04/07 01:47:24;;;;;;;5.00;4.50;;;;;5.90;95228.00;;;;5106743;28;20199;-71
2022/04/07 01:49:56;;;;;;;4.97;4.47;;;;;6.00;95237.00;;;;5105752;28;20219;-71
2022/04/07 01:52:25;;;;;;;5.13;4.73;;;;;5.90;95226.00;;;;5098094;28;20217;-72
2022/04/07 01:54:56;;;;;;;5.50;4.87;;;;;5.60;95228.00;;;;5115406;27;20209;-71
2022/04/07 01:57:25;;;;;;;4.40;4.00;;;;;5.70;95223.00;;;;5097508;28;20290;-71
2022/04/07 01:59:54;;;;;;;7.27;5.10;;;;;5.60;95205.00;;;;5096791;28;20304;-71
2022/04/07 02:02:23;;;;;;;5.23;4.73;;;;;5.40;95192.00;;;;5111006;28;20208;-71
2022/04/07 02:04:56;;;;;;;5.77;5.00;;;;;5.30;95204.00;;;;5110988;28;20575;-72
2022/04/07 02:07:29;;;;;;;7.40;4.13;;;;;5.30;95180.00;;;;5095404;28;20203;-71
2022/04/07 02:10:00;;;;;;;5.47;4.70;;;;;5.00;95184.00;;;;5090014;28;20302;-71
2022/04/07 02:12:29;;;;;;;4.30;3.90;;;;;5.00;95191.00;;;;5092803;28;20481;-71
2022/04/07 02:14:59;;;;;;;6.40;4.40;;;;;4.90;95176.00;;;;5110540;28;20445;-71
2022/04/07 02:17:28;;;;;;;5.33;4.83;;;;;5.20;95168.00;;;;5110801;28;20198;-70
2022/04/07 02:19:58;;;;;;;4.47;4.07;;;;;5.30;95168.00;;;;5095866;28;20481;-71
2022/04/07 02:22:28;;;;;;;4.87;4.37;;;;;5.60;95162.00;;;;5089973;28;20517;-70
2022/04/07 02:24:59;;;;;;;4.80;4.33;;;;;5.80;95159.00;;;;5089797;28;20241;-71
2022/04/07 02:27:35;;;;;;;4.10;3.80;;;;;5.60;95156.00;;;;5090054;28;20429;-70
2022/04/07 02:30:07;;;;;;;5.20;4.27;;;;;5.50;95156.00;;;;5108516;28;20218;-70
2022/04/07 02:32:36;;;;;;;5.03;4.20;;;;;5.10;95139.00;;;;5099664;27;20222;-72
2022/04/07 02:35:06;;;;;;;4.27;3.87;;;;;5.20;95151.00;;;;5090670;28;20956;-71
2022/04/07 02:37:34;;;;;;;3.60;3.30;;;;;4.90;95146.00;;;;5089704;28;20199;-71
2022/04/07 02:40:05;;;;;;;7.03;4.40;;;;;5.00;95153.00;;;;5089823;28;20306;-71
2022/04/07 02:42:34;;;;;;;5.97;4.17;;;;;5.20;95142.00;;;;5089855;28;20436;-71
2022/04/07 02:45:03;;;;;;;3.87;3.53;;;;;5.10;95141.00;;;;5102161;27;20186;-71
2022/04/07 02:47:32;;;;;;;4.80;3.83;;;;;5.20;95133.00;;;;5111099;27;20432;-71
2022/04/07 02:50:01;;;;;;;4.30;3.90;;;;;5.10;95134.00;;;;5089795;28;20499;-71
2022/04/07 02:52:30;;;;;;;4.63;4.20;;;;;5.00;95123.00;;;;5104928;28;20229;-71
2022/04/07 02:54:59;;;;;;;4.97;3.53;;;;;4.90;95123.00;;;;5110408;28;20259;-72
2022/04/07 02:57:31;;;;;;;4.77;3.87;;;;;4.90;95128.00;;;;5109105;28;20203;-71
2022/04/07 02:59:59;;;;;;;3.93;2.90;;;;;4.60;95131.00;;;;5105570;28;20279;-71
2022/04/07 03:02:29;;;;;;;3.77;3.27;;;;;4.80;95129.00;;;;5099205;28;20199;-71
2022/04/07 03:04:58;;;;;;;3.27;3.00;;;;;4.90;95127.00;;;;5089852;28;20868;-72
2022/04/07 03:07:26;;;;;;;4.23;3.83;;;;;5.10;95132.00;;;;5089228;28;20436;-71
2022/04/07 03:09:55;;;;;;;7.77;3.40;;;;;5.00;95125.00;;;;5089027;28;20459;-71
2022/04/07 03:12:24;;;;;;;4.40;3.60;;;;;5.10;95132.00;;;;5091369;28;20473;-71
2022/04/07 03:14:54;;;;;;;4.20;3.27;;;;;5.10;95134.00;;;;5109852;28;20436;-71
2022/04/07 03:17:23;;;;;;;2.83;2.63;;;;;5.10;95146.00;;;;5109920;28;20432;-72
2022/04/07 03:19:52;;;;;;;3.40;3.10;;;;;5.10;95142.00;;;;5095227;28;20496;-71
2022/04/07 03:22:22;;;;;;;3.20;2.90;;;;;5.40;95146.00;;;;5089256;28;20422;-71
2022/04/07 03:24:51;;;;;;;3.00;2.73;;;;;5.60;95144.00;;;;5089509;28;20430;-71
2022/04/07 03:27:20;;;;;;;2.90;2.40;;;;;5.70;95145.00;;;;5089482;28;20536;-71
2022/04/07 03:29:49;;;;;;;3.83;2.87;;;;;5.60;95151.00;;;;5091438;28;20254;-72
2022/04/07 03:32:19;;;;;;;4.03;2.83;;;;;5.70;95144.00;;;;5101621;28;20559;-72
2022/04/07 03:34:48;;;;;;;4.07;2.53;;;;;5.60;95155.00;;;;5089410;28;20737;-72
2022/04/07 03:37:17;;;;;;;3.10;2.80;;;;;5.80;95153.00;;;;5092537;28;20206;-71
2022/04/07 03:39:46;;;;;;;2.50;2.20;;;;;5.80;95151.00;;;;5093073;28;20584;-71
2022/04/07 03:42:15;;;;;;;2.73;2.53;;;;;5.60;95158.00;;;;5093859;28;20199;-71
2022/04/07 03:44:44;;;;;;;1.83;1.70;;;;;5.60;95154.00;;;;5099953;27;20332;-71
2022/04/07 03:47:13;;;;;;;11.73;3.37;;;;;5.40;95150.00;;;;5117636;27;20195;-71
2022/04/07 03:49:43;;;;;;;3.87;2.43;;;;;5.50;95153.00;;;;5094573;28;20223;-71
2022/04/07 03:52:12;;;;;;;2.07;1.97;;;;;5.40;95147.00;;;;5105893;28;20206;-71
2022/04/07 03:54:41;;;;;;;2.53;2.33;;;;;5.30;95154.00;;;;5095379;28;20195;-72
2022/04/07 03:57:09;;;;;;;2.13;1.93;;;;;5.40;95157.00;;;;5093002;28;20210;-71
2022/04/07 03:59:39;;;;;;;3.13;2.23;;;;;5.70;95161.00;;;;5092664;28;20225;-72
2022/04/07 04:02:10;;;;;;;2.37;1.90;;;;;5.70;95154.00;;;;5106800;27;20801;-72
2022/04/07 04:04:38;;;;;;;2.17;1.87;;;;;5.50;95158.00;;;;5114045;27;20466;-71
2022/04/07 04:07:09;;;;;;;2.10;1.90;;;;;5.50;95166.00;;;;5111866;27;20486;-71
2022/04/07 04:09:38;;;;;;;1.77;1.67;;;;;5.60;95172.00;;;;5103719;28;20457;-71
2022/04/07 04:12:08;;;;;;;5.00;2.33;;;;;5.40;95166.00;;;;5092611;28;20222;-71
2022/04/07 04:14:37;;;;;;;2.03;1.83;;;;;5.30;95159.00;;;;5114629;27;20526;-71
2022/04/07 04:17:06;;;;;;;2.60;1.83;;;;;5.60;95181.00;;;;5110378;27;20939;-71
2022/04/07 04:19:35;;;;;;;1.77;1.67;;;;;5.80;95178.00;;;;5106291;27;20226;-72
2022/04/07 04:22:04;;;;;;;3.70;2.50;;;;;5.80;95173.00;;;;5109798;27;20241;-72
2022/04/07 04:24:35;;;;;;;3.73;3.40;;;;;5.30;95176.00;;;;5115704;27;20190;-71
2022/04/07 04:27:05;;;;;;;2.27;2.07;;;;;5.60;95171.00;;;;5102273;28;20682;-71
2022/04/07 04:29:34;;;;;;;2.27;2.03;;;;;5.70;95182.00;;;;5092061;28;20298;-71
2022/04/07 04:32:02;;;;;;;1.50;1.30;;;;;5.70;95178.00;;;;5093972;28;20191;-71
2022/04/07 04:34:31;;;;;;;2.23;2.03;;;;;5.70;95179.00;;;;5116817;27;20263;-71
2022/04/07 04:37:00;;;;;;;2.43;1.77;;;;;5.50;95170.00;;;;5105033;27;20218;-71
2022/04/07 04:39:37;;;;;;;4.60;2.90;;;;;5.60;95186.00;;;;5091613;28;20215;-73
2022/04/07 04:42:07;;;;;;;2.60;2.40;;;;;5.60;95186.00;;;;5092543;28;20479;-74
2022/04/07 04:44:36;;;;;;;2.17;1.97;;;;;5.50;95184.00;;;;5104437;28;20203;-71
2022/04/07 04:47:06;;;;;;;2.37;2.20;;;;;5.60;95190.00;;;;5111403;27;20195;-70
2022/04/07 04:49:34;;;;;;;2.00;1.50;;;;;5.80;95180.00;;;;5104569;27;20219;-70
2022/04/07 04:52:04;;;;;;;2.00;1.80;;;;;5.90;95187.00;;;;5110610;27;20226;-70
2022/04/07 04:54:33;;;;;;;1.30;1.20;;;;;6.10;95186.00;;;;5093633;28;20219;-70
2022/04/07 04:57:04;;;;;;;4.93;1.73;;;;;6.10;95192.00;;;;5091679;28;20429;-70
2022/04/07 04:59:33;;;;;;;3.73;2.03;;;;;6.10;95195.00;;;;5103836;27;20460;-70
2022/04/07 05:02:04;;;;;;;1.70;1.40;;;;;5.70;95193.00;;;;5103361;28;20214;-70
2022/04/07 05:04:33;;;;;;;2.13;1.70;;;;;5.40;95201.00;;;;5113693;27;20199;-70
2022/04/07 05:07:01;;;;;;;1.60;1.50;;;;;5.50;95193.00;;;;5106626;28;20195;-70
2022/04/07 05:09:30;;;;;;;1.70;1.23;;;;;5.90;95198.00;;;;5103490;27;20351;-71
2022/04/07 05:11:59;;;;;;;1.90;1.73;;;;;6.00;95194.00;;;;5114106;27;20195;-70
2022/04/07 05:14:29;;;;;;;4.77;2.27;;;;;6.10;95201.00;;;;5110651;28;20222;-71
2022/04/07 05:16:58;;;;;;;1.60;1.50;;;;;6.40;95204.00;;;;5111472;28;20198;-70
2022/04/07 05:19:27;;;;;;;1.47;1.37;;;;;6.50;95207.00;;;;5100375;28;20219;-70
2022/04/07 05:21:56;;;;;;;1.33;1.23;;;;;6.50;95195.00;;;;5091595;28;20199;-70
2022/04/07 05:24:25;;;;;;;2.17;1.63;;;;;6.60;95193.00;;;;5096052;28;20191;-70
2022/04/07 05:26:54;;;;;;;1.97;1.67;;;;;6.70;95212.00;;;;5111886;27;20255;-71
2022/04/07 05:29:23;;;;;;;1.60;1.47;;;;;6.50;95213.00;;;;5113018;27;20218;-70
2022/04/07 05:31:53;;;;;;;2.97;2.30;;;;;6.20;95207.00;;;;5102985;27;20277;-70
2022/04/07 05:34:22;;;;;;;8.90;4.07;;;;;6.30;95219.00;;;;5113604;27;20214;-71
2022/04/07 05:36:51;;;;;;;6.23;4.53;;;;;6.50;95219.00;;;;5106570;28;20210;-69
2022/04/07 05:39:20;;;;;;;6.63;5.60;;;;;6.80;95222.00;;;;5104115;27;20207;-70
2022/04/07 05:41:49;;;;;;;4.23;3.63;;;;;6.90;95216.00;;;;5116261;27;20202;-70
2022/04/07 05:44:18;;;;;;;5.17;3.27;;;;;7.00;95221.00;;;;5111254;27;20198;-70
2022/04/07 05:46:46;;;;;;;4.37;3.30;;;;;7.20;95230.00;;;;5108765;27;20282;-70
2022/04/07 05:49:17;;;;;;;3.70;2.57;;;;;7.30;95228.00;;;;5095696;28;20210;-69
2022/04/07 05:51:47;;;;;;;2.20;2.00;;;;;7.00;95225.00;;;;5090728;28;20207;-70
2022/04/07 05:54:17;;;;;;;2.37;1.57;;;;;7.10;95231.00;;;;5090740;28;20207;-70
2022/04/07 05:56:46;;;;;;;3.37;1.70;;;;;7.40;95235.00;;;;5090758;28;20337;-70
2022/04/07 05:59:15;;;;;;;2.30;2.10;;;;;7.30;95221.00;;;;5090667;28;20207;-70
2022/04/07 06:01:44;;;;;;;3.27;2.40;;;;;7.30;95214.00;;;;5090908;28;20198;-70
2022/04/07 06:04:13;;;;;;;4.83;3.30;;;;;7.50;95226.00;;;;5097992;27;20198;-70
2022/04/07 06:06:43;;;;;;;5.00;3.60;;;;;7.90;95240.00;;;;5113553;27;20206;-70
2022/04/07 06:09:12;;;;;;;2.53;1.67;;;;;8.00;95240.00;;;;5109013;27;20202;-71
2022/04/07 06:11:41;;;;;;;2.57;2.30;;;;;8.10;95242.00;;;;5109384;28;20207;-70
2022/04/07 06:14:10;;;;;;;5.10;1.60;;;;;8.00;95240.00;;;;5103557;28;20212;-71
2022/04/07 06:16:38;;;;;;;1.17;1.00;;;;;8.10;95238.00;;;;5104578;28;20277;-70
2022/04/07 06:19:07;;;;;;;3.10;1.00;;;;;8.20;95236.00;;;;5115454;27;20190;-70
2022/04/07 06:21:36;;;;;;;1.47;1.30;;;;;8.40;95226.00;;;;5112414;27;20209;-70
2022/04/07 06:24:07;;;;;;;1.37;1.10;;;;;8.40;95241.00;;;;5090223;28;20196;-70
2022/04/07 06:26:36;;;;;;;1.30;1.20;;;;;8.60;95243.00;;;;5089756;28;20227;-70
2022/04/07 06:29:05;;;;;;;1.37;1.27;;;;;8.50;95228.00;;;;5090416;28;20281;-71
2022/04/07 06:31:34;;;;;;;1.03;0.93;;;;;8.50;95236.00;;;;5099712;28;20749;-70
2022/04/07 06:34:05;;;;;;;2.50;1.60;;;;;8.70;95234.00;;;;5097983;28;20218;-70
2022/04/07 06:36:35;;;;;;;1.47;1.37;;;;;8.90;95232.00;;;;5108959;28;20202;-70
2022/04/07 06:39:06;;;;;;;1.93;1.43;;;;;9.10;95238.00;;;;5106026;27;20195;-70
2022/04/07 06:41:35;;;;;;;3.67;1.57;;;;;9.10;95236.00;;;;5104858;27;20202;-71
2022/04/07 06:44:04;;;;;;;2.50;1.17;;;;;8.90;95237.00;;;;5109812;27;20193;-70
2022/04/07 06:46:33;;;;;;;1.57;1.47;;;;;8.90;95231.00;;;;5106708;28;20206;-71
2022/04/07 06:49:03;;;;;;;1.70;1.60;;;;;8.90;95232.00;;;;5110039;27;20200;-70
2022/04/07 06:51:32;;;;;;;2.67;1.37;;;;;8.90;95240.00;;;;5109327;27;20203;-70
2022/04/07 06:54:01;;;;;;;2.73;1.30;;;;;8.90;95236.00;;;;5100351;27;20219;-70
2022/04/07 06:56:31;;;;;;;1.43;1.33;;;;;9.20;95258.00;;;;5088512;28;20576;-70
2022/04/07 06:59:01;;;;;;;3.77;1.33;;;;;9.10;95243.00;;;;5091833;28;20191;-70
2022/04/07 07:01:30;;;;;;;5.97;2.97;;;;;9.20;95250.00;;;;5104897;28;20195;-70
2022/04/07 07:04:00;;;;;;;2.30;1.50;;;;;9.60;95245.00;;;;5113937;27;20205;-70
2022/04/07 07:06:28;;;;;;;2.53;1.47;;;;;9.90;95259.00;;;;5115985;27;20200;-70
2022/04/07 07:08:57;;;;;;;1.73;1.17;;;;;10.00;95251.00;;;;5099964;28;20203;-69
2022/04/07 07:11:26;;;;;;;1.87;1.10;;;;;10.10;95249.00;;;;5088730;28;20223;-70
2022/04/07 07:13:56;;;;;;;1.63;1.07;;;;;10.40;95249.00;;;;5100365;28;20429;-70
2022/04/07 07:16:26;;;;;;;1.83;1.60;;;;;10.50;95260.00;;;;5106590;27;20682;-71
2022/04/07 07:18:55;;;;;;;2.00;1.20;;;;;10.40;95259.00;;;;5111051;28;20203;-71
2022/04/07 07:21:24;;;;;;;3.27;2.97;;;;;10.50;95255.00;;;;5102471;28;20272;-71
2022/04/07 07:23:53;;;;;;;3.67;3.37;;;;;10.50;95259.00;;;;5095957;28;20650;-70
2022/04/07 07:26:22;;;;;;;3.33;2.70;;;;;10.60;95254.00;;;;5116161;28;20197;-71
2022/04/07 07:28:50;;;;;;;2.10;1.87;;;;;10.90;95257.00;;;;5093550;28;20232;-71
2022/04/07 07:31:21;;;;;;;2.57;1.77;;;;;11.10;95259.00;;;;5096782;28;20264;-71
2022/04/07 07:33:50;;;;;;;3.30;1.97;;;;;11.00;95251.00;;;;5104342;28;20195;-71
2022/04/07 07:36:18;;;;;;;6.30;4.93;;;;;11.00;95251.00;;;;5093586;28;20218;-71
2022/04/07 07:38:47;;;;;;;2.00;1.90;;;;;10.90;95248.00;;;;5088961;28;20207;-71
2022/04/07 07:41:16;;;;;;;3.30;1.50;;;;;11.30;95253.00;;;;5106348;28;20226;-71
2022/04/07 07:43:45;;;;;;;1.40;1.30;;;;;11.50;95259.00;;;;5105475;28;20210;-71
2022/04/07 07:46:14;;;;;;;2.10;1.23;;;;;11.80;95269.00;;;;5119197;28;20188;-71
2022/04/07 07:48:44;;;;;;;1.27;1.20;;;;;12.10;95275.00;;;;5089006;28;20191;-71
2022/04/07 07:51:13;;;;;;;1.03;0.97;;;;;12.20;95256.00;;;;5089221;28;20937;-71
2022/04/07 07:53:45;;;;;;;1.63;1.50;;;;;12.40;95260.00;;;;5107144;28;20194;-70
2022/04/07 07:56:14;;;;;;;4.43;2.27;;;;;12.50;95266.00;;;;5103935;28;20219;-71
2022/04/07 07:58:42;;;;;;;2.57;1.33;;;;;13.20;95263.00;;;;5114591;28;20239;-70
2022/04/07 08:01:11;;;;;;;2.33;1.70;;;;;13.60;95259.00;;;;5097253;28;20744;-71
2022/04/07 08:03:40;;;;;;;5.63;1.30;;;;;14.00;95263.00;;;;5089313;28;20207;-71
2022/04/07 08:06:10;;;;;;;1.40;1.27;;;;;14.20;95276.00;;;;5102137;28;20219;-71
2022/04/07 08:08:39;;;;;;;2.57;1.10;;;;;14.50;95271.00;;;;5101616;28;20221;-71
2022/04/07 08:11:10;;;;;;;3.33;1.50;;;;;14.80;95265.00;;;;5109119;28;20734;-71
2022/04/07 08:13:39;;;;;;;0.80;0.80;;;;;15.10;95265.00;;;;5102447;28;20204;-71
2022/04/07 08:16:10;;;;;;;2.00;1.20;;;13.80;99.90;15.20;95267.00;;;;5109834;28;20731;-71
2022/04/07 08:18:38;;;;;;;1.33;1.23;;;13.90;99.90;15.20;95265.00;;;;5098004;28;20222;-71
2022/04/07 08:21:07;;;;;;;2.63;1.70;;;14.00;99.90;15.40;95266.00;;;;5107809;28;20211;-71
2022/04/07 08:23:37;;;;;;;2.93;2.40;;;14.20;99.90;15.60;95262.00;;;;5110132;27;20199;-71
2022/04/07 08:26:05;;;;;;;3.40;1.83;;;14.30;99.90;15.90;95266.00;;;;5116908;27;20285;-71
2022/04/07 08:28:34;;;;;;;1.43;1.33;;;14.50;99.90;16.10;95267.00;;;;5114017;27;20195;-71
2022/04/07 08:31:02;;;;;;;2.40;0.87;;;14.70;99.90;16.00;95266.00;;;;5101916;28;20214;-71
2022/04/07 08:33:31;;;;;;;0.57;0.57;;;14.80;99.90;16.10;95262.00;;;;5108264;27;20257;-70
2022/04/07 08:36:00;;;;;;;2.27;0.90;;;14.90;99.90;16.20;95269.00;;;;5099062;28;20222;-70
2022/04/07 08:38:28;;;;;;;0.60;0.53;;;15.00;99.90;16.30;95252.00;;;;5092604;28;20187;-71
2022/04/07 08:40:58;;;;;;;1.20;1.10;;;15.10;98.70;16.50;95256.00;;;;5106785;28;20293;-71
2022/04/07 08:43:27;;;;;;;2.03;1.20;;;15.20;97.70;16.80;95255.00;;;;5113018;28;20274;-71
2022/04/07 08:45:56;;;;;;;2.77;0.90;;;15.40;97.00;16.60;95255.00;;;;5113097;28;20764;-70
2022/04/07 08:48:26;;;;;;;0.87;0.70;;;15.60;94.90;17.40;95244.00;;;;5111917;28;20222;-71
2022/04/07 08:50:56;;;;;;;0.70;0.70;;;15.80;93.90;17.00;95246.00;;;;5110912;28;20206;-71
2022/04/07 08:53:25;;;;;;;1.80;0.63;;;16.00;92.30;17.40;95250.00;;;;5092659;28;20203;-70
2022/04/07 08:55:53;;;;;;;0.67;0.60;;;16.10;91.60;17.20;95251.00;;;;5108322;28;20218;-70
2022/04/07 08:58:23;;;;;;;1.30;0.60;;;16.20;91.20;17.40;95246.00;;;;5111838;28;20252;-71
2022/04/07 09:00:52;;;;;;;0.60;0.50;;;16.30;90.30;16.70;95245.00;;;;5112473;28;20344;-71
2022/04/07 09:03:20;;;;;;;0.53;0.50;;;16.30;83.10;16.60;95253.00;;;;5106932;28;20194;-70
2022/04/07 09:05:57;;;;;;;0.70;0.33;;;16.30;81.40;16.90;95233.00;;;;5104735;28;20202;-70
2022/04/07 09:08:33;;;;;;;0.40;0.40;;;16.20;80.90;16.90;95220.00;;;;5104642;28;20608;-70
2022/04/07 09:11:03;;;;;;;1.43;1.33;;;16.30;79.10;17.30;95213.00;;;;5100674;28;20214;-70
2022/04/07 09:13:35;;;;;;;1.00;0.70;;;16.30;78.10;17.50;95231.00;;;;5102470;27;20191;-70
2022/04/07 09:16:07;;;;;;;1.33;0.60;;;16.40;78.20;18.50;95226.00;;;;5118777;27;20218;-69
2022/04/07 09:18:36;;;;;;;0.60;0.53;;;16.70;80.40;18.20;95227.00;;;;5107466;27;20245;-70
2022/04/07 09:21:06;;;;;;;0.53;0.50;;;17.00;77.70;18.40;95228.00;;;;5101907;28;20293;-70
2022/04/07 09:23:39;;;;;;;0.50;0.30;;;17.10;74.90;17.90;95222.00;;;;5109417;28;20214;-69
2022/04/07 09:26:12;;;;;;;0.53;0.43;;;17.40;71.50;18.20;95220.00;;;;5107604;28;20205;-70
2022/04/07 09:28:43;;;;;;;1.07;0.60;;;17.40;73.30;18.60;95220.00;;;;5096777;28;20195;-70
2022/04/07 09:31:14;;;;;;;1.70;0.50;;;17.60;72.90;18.50;95209.00;;;;5108096;28;20219;-70
2022/04/07 09:33:43;;;;;;;0.63;0.60;;;17.60;70.40;19.20;95214.00;;;;5107887;28;20240;-70
2022/04/07 09:36:19;;;;;;;0.60;0.60;;;17.80;71.60;19.50;95212.00;;;;5111473;28;20253;-70
2022/04/07 09:38:51;;;;;;;0.67;0.50;;;18.00;71.50;19.90;95203.00;;;;5091304;28;20187;-70
2022/04/07 09:41:20;;;;;;;0.80;0.70;;;18.30;71.30;20.20;95210.00;;;;5101694;28;20218;-70
2022/04/07 09:43:54;;;;;;;1.00;0.90;;;18.50;71.10;19.70;95204.00;;;;5109962;28;20197;-70
2022/04/07 09:46:23;;;;;;;2.40;0.63;;;18.60;67.80;20.00;95207.00;;;;5111758;27;20906;-70
2022/04/07 09:49:05;;;;;;;0.70;0.50;;;18.70;67.90;19.70;95194.00;;;;5109858;28;20534;-70
2022/04/07 09:51:45;;;;;;;0.53;0.50;;;18.90;67.70;19.90;95212.00;;;;5091626;28;20604;-70
2022/04/07 09:54:17;;;;;;;0.90;0.67;;;18.90;64.60;18.30;95192.00;;;;5105159;28;20274;-70
2022/04/07 09:56:48;;;;;;;0.50;0.47;;;18.70;62.00;19.20;95207.00;;;;5105140;28;20225;-69
2022/04/07 09:59:19;;;;;;;0.77;0.73;;;18.50;63.80;19.30;95206.00;;;;5108388;27;20202;-69
2022/04/07 10:01:50;;;;;;;1.90;0.70;;;18.40;64.90;19.30;95195.00;;;;5120302;27;20281;-69
2022/04/07 10:04:22;;;;;;;0.30;0.30;;;18.40;65.50;19.50;95187.00;;;;5092209;28;20191;-69
2022/04/07 10:06:52;;;;;;;3.07;0.97;;;18.50;64.80;19.60;95191.00;;;;5110956;27;20218;-69
2022/04/07 10:09:22;;;;;;;1.07;0.70;;;18.60;65.70;19.30;95172.00;;;;5097756;28;20189;-70
2022/04/07 10:11:52;;;;;;;1.27;0.60;;;18.60;63.10;19.30;95152.00;;;;5111733;27;20194;-69
2022/04/07 10:14:23;;;;;;;0.80;0.50;;;18.60;60.90;19.90;95150.00;;;;5106670;28;20183;-70
2022/04/07 10:16:51;;;;;;;0.67;0.43;;;18.70;60.10;20.60;95144.00;;;;5097841;28;20299;-69
2022/04/07 10:19:26;;;;;;;0.50;0.50;;;18.90;60.90;20.80;95150.00;;;;5107535;28;20183;-69
2022/04/07 10:22:16;;;;;;;1.00;0.90;;;19.10;60.80;20.60;95150.00;;;;5103182;28;20201;-70
2022/04/07 10:24:48;;;;;;;0.57;0.40;;;19.30;61.40;19.10;95142.00;;;;5099825;28;20204;-70
2022/04/07 10:27:30;;;;;;;0.40;0.40;;;19.30;58.40;19.80;95129.00;;;;5110197;28;20266;-69
2022/04/07 10:30:10;;;;;;;0.67;0.43;;;19.30;58.00;20.50;95130.00;;;;5105694;28;20298;-70
2022/04/07 10:32:42;;;;;;;1.37;0.40;;;19.30;59.70;19.20;95119.00;;;;5099478;27;20199;-70
2022/04/07 10:35:29;;;;;;;4.37;0.70;;;19.30;57.90;19.30;95114.00;;;;5104965;28;20191;-69
2022/04/07 10:37:58;;;;;;;2.20;0.80;;;19.20;57.40;20.10;95117.00;;;;5100731;28;20222;-67
2022/04/07 10:40:44;;;;;;;1.13;0.70;;;19.20;58.60;19.60;95125.00;;;;5111029;27;20267;-67
2022/04/07 10:43:25;;;;;;;0.90;0.50;;;19.30;57.70;21.10;95125.00;;;;5103434;28;20195;-67
2022/04/07 10:46:11;;;;;;;1.67;0.50;;;19.40;58.60;22.20;95121.00;;;;5101388;28;20231;-66
2022/04/07 10:48:46;;;;;;;1.27;0.80;;;19.80;59.50;22.30;95118.00;;;;5095281;28;20190;-67
2022/04/07 10:51:15;;;;;;;1.67;0.83;;;20.20;59.10;22.60;95123.00;;;;5098307;28;20217;-67
2022/04/07 10:54:03;;;;;;;0.90;0.73;;;20.60;58.70;22.80;95122.00;;;;5101743;28;20194;-67
2022/04/07 10:56:34;;;;;;;1.47;0.67;;;20.90;58.40;23.40;95117.00;;;;5103462;28;20215;-67
2022/04/07 10:59:21;;;;;;;1.17;0.70;;;21.20;58.20;22.40;95111.00;;;;5097352;27;20200;-67
2022/04/07 11:02:00;;;;;;;1.00;0.60;;;21.50;54.80;22.80;95112.00;;;;5081712;28;20224;-70
2022/04/07 11:05:08;;;;;;;0.70;0.67;;;21.60;55.30;24.00;95113.00;;;;5102595;28;20182;-70
2022/04/07 11:07:41;;;;;;;2.47;0.80;;;21.90;56.60;24.10;95098.00;;;;5104415;28;20264;-69
2022/04/07 11:10:14;;;;;;;1.50;0.70;;;22.20;55.30;24.40;95095.00;;;;5101612;28;20221;-67
2022/04/07 11:12:45;;;;;;;2.27;1.13;;;22.40;55.20;24.50;95092.00;;;;5104991;28;20418;-68
2022/04/07 11:15:50;;;;;;;1.97;0.77;;;22.70;55.20;24.80;95080.00;;;;5098708;28;20198;-67
2022/04/07 11:21:13;;;;;;;2.57;0.83;;;22.90;54.60;25.50;95075.00;;;;5096653;27;20626;-68
2022/04/07 11:23:52;;;;;;;0.80;0.80;;;23.60;53.80;25.00;95078.00;;;;5079407;28;20218;-68
2022/04/07 11:26:23;;;;;;;1.23;0.90;;;23.80;52.70;21.90;95051.00;;;;5070325;28;20188;-67
2022/04/07 11:29:11;;;;;;;1.20;0.97;;;23.50;49.30;23.30;95056.00;;;;5073714;28;20199;-68
2022/04/07 11:31:46;;;;;;;0.80;0.80;;;22.80;51.70;24.30;95048.00;;;;5071719;28;20209;-65
2022/04/07 11:34:52;;;;;;;3.23;0.70;;;22.80;52.20;24.20;95056.00;;;;5070292;28;20274;-67
2022/04/07 11:37:22;;;;;;;3.20;1.00;;;23.10;51.00;23.30;95041.00;;;;5064453;28;20212;-68
2022/04/07 11:39:53;;;;;;;2.03;0.80;;;23.00;50.00;23.40;95031.00;;;;5080381;28;20847;-68
2022/04/07 11:42:23;;;;;;;1.30;0.97;;;23.10;49.60;22.10;95027.00;;;;5073567;28;20200;-68
2022/04/07 11:44:59;;;;;;;2.03;0.90;;;22.80;50.70;22.40;95039.00;;;;5075873;28;20210;-68
2022/04/07 11:47:31;;;;;;;1.93;0.90;;;22.70;50.80;21.30;95044.00;;;;5073825;28;20195;-68
2022/04/07 11:50:00;;;;;;;1.10;0.90;;;22.40;49.50;23.20;95041.00;;;;5077156;28;20223;-67
2022/04/07 11:52:32;;;;;;;0.90;0.47;;;22.20;51.30;21.90;95040.00;;;;5077049;28;20210;-69
2022/04/07 11:55:04;;;;;;;1.20;1.10;;;21.90;51.30;22.00;95028.00;;;;5078010;28;20203;-69
2022/04/07 11:57:33;;;;;;;1.03;0.90;;;22.00;50.40;22.10;95043.00;;;;5074718;28;20207;-68
2022/04/07 12:00:06;;;;;;;2.17;0.80;;;22.00;50.60;21.30;95023.00;;;;5082447;28;20219;-70
2022/04/07 12:02:34;;;;;;;1.10;1.00;;;22.10;50.20;22.20;95028.00;;;;5079687;28;20199;-69
2022/04/07 12:05:05;;;;;;;0.87;0.77;;;21.80;50.80;23.70;95039.00;;;;5076923;28;20211;-69
2022/04/07 12:07:35;;;;;;;0.83;0.80;;;22.00;51.70;24.20;95031.00;;;;5079185;28;20196;-69
2022/04/07 12:10:09;;;;;;;0.97;0.83;;;22.50;51.80;24.80;95023.00;;;;5082124;28;20272;-68
2022/04/07 12:12:40;;;;;;;1.53;1.20;;;22.90;49.90;22.50;95004.00;;;;5078153;28;20669;-68